sensor_id;sensor_type;location;lat;lon;timestamp;pressure;altitude;pressure_sealevel;temperature;humidity
44359;BME280;30077;52.474;13.326;2023-04-08T00:03:02;101401.53;;;8.11;100.00
44359;BME280;30077;52.474;13.326;2023-04-08T00:08:02;101401.78;;;8.00;100.00
44359;BME280;30077;52.474;13.326;2023-04-08T00:13:02;101400.38;;;8.23;100.00
44359;BME280;30077;52.474;13.326;2023-04-08T00:18:02;101400.69;;;8.10;100.00
44359;BME280;30077;52.474;13.326;2023-04-08T00:23:03;101402.47;;;8.08;100.00
44359;BME280;30077;52.474;13.326;2023-04-08T00:28:04;101409.47;;;8.12;100.00
44359;BME280;30077;52.474;13.326;2023-04-08T00:33:04;101410.00;;;7.88;100.00
44359;BME280;30077;52.474;13.326;2023-04-08T00:38:04;101404.44;;;8.00;100.00
44359;BME280;30077;52.474;13.326;2023-04-08T00:43:06;101411.16;;;7.76;100.00
44359;BME280;30077;52.474;13.326;2023-04-08T00:48:07;101412.19;;;7.70;100.00
44359;BME280;30077;52.474;13.326;2023-04-08T00:53:07;101415.41;;;7.85;100.00
44359;BME280;30077;52.474;13.326;2023-04-08T00:58:07;101410.28;;;7.76;100.00
44359;BME280;30077;52.474;13.326;2023-04-08T01:03:26;101409.16;;;7.87;100.00
44359;BME280;30077;52.474;13.326;2023-04-08T01:08:29;60132.88;;;-143.30;100.00
44359;BME280;30077;52.474;13.326;2023-04-08T01:13:32;60132.88;;;-143.30;100.00
44359;BME280;30077;52.474;13.326;2023-04-08T01:18:34;60132.88;;;-143.30;100.00
44359;BME280;30077;52.474;13.326;2023-04-08T01:28:52;60132.88;;;-143.30;100.00
44359;BME280;30077;52.474;13.326;2023-04-08T01:33:54;60132.88;;;-143.30;100.00
44359;BME280;30077;52.474;13.326;2023-04-08T01:38:55;60132.88;;;-143.30;100.00
44359;BME280;30077;52.474;13.326;2023-04-08T01:43:56;60132.88;;;-143.30;100.00
44359;BME280;30077;52.474;13.326;2023-04-08T01:48:57;60132.88;;;-143.30;100.00
44359;BME280;30077;52.474;13.326;2023-04-08T01:53:58;60132.88;;;-143.30;100.00
44359;BME280;30077;52.474;13.326;2023-04-08T01:58:58;60132.88;;;-143.30;100.00
44359;BME280;30077;52.474;13.326;2023-04-08T02:03:59;60132.88;;;-143.30;100.00
44359;BME280;30077;52.474;13.326;2023-04-08T02:09:00;60132.88;;;-143.30;100.00
44359;BME280;30077;52.474;13.326;2023-04-08T02:14:01;60132.88;;;-143.30;100.00
44359;BME280;30077;52.474;13.326;2023-04-08T02:19:04;60132.88;;;-143.30;100.00
44359;BME280;30077;52.474;13.326;2023-04-08T02:24:06;60132.88;;;-143.30;100.00
44359;BME280;30077;52.474;13.326;2023-04-08T02:29:10;60132.88;;;-143.30;100.00
44359;BME280;30077;52.474;13.326;2023-04-08T02:34:11;60132.88;;;-143.30;100.00
44359;BME280;30077;52.474;13.326;2023-04-08T02:39:12;60132.88;;;-143.30;100.00
44359;BME280;30077;52.474;13.326;2023-04-08T02:44:12;60132.88;;;-143.30;100.00
44359;BME280;30077;52.474;13.326;2023-04-08T02:49:12;60132.88;;;-143.30;100.00
44359;BME280;30077;52.474;13.326;2023-04-08T02:54:13;60132.88;;;-143.30;100.00
44359;BME280;30077;52.474;13.326;2023-04-08T02:59:13;60132.88;;;-143.30;100.00
44359;BME280;30077;52.474;13.326;2023-04-08T03:04:13;60132.88;;;-143.30;100.00
44359;BME280;30077;52.474;13.326;2023-04-08T03:09:13;60132.88;;;-143.30;100.00
44359;BME280;30077;52.474;13.326;2023-04-08T03:14:13;60132.88;;;-143.30;100.00
44359;BME280;30077;52.474;13.326;2023-04-08T03:19:13;60132.88;;;-143.30;100.00
44359;BME280;30077;52.474;13.326;2023-04-08T03:24:14;60132.88;;;-143.30;100.00
44359;BME280;30077;52.474;13.326;2023-04-08T03:29:14;60132.88;;;-143.30;100.00
44359;BME280;30077;52.474;13.326;2023-04-08T03:34:14;60132.88;;;-143.30;100.00
44359;BME280;30077;52.474;13.326;2023-04-08T03:39:14;60132.88;;;-143.30;100.00
44359;BME280;30077;52.474;13.326;2023-04-08T03:44:14;60132.88;;;-143.30;100.00
44359;BME280;30077;52.474;13.326;2023-04-08T03:49:15;60132.88;;;-143.30;100.00
44359;BME280;30077;52.474;13.326;2023-04-08T03:54:15;60132.88;;;-143.30;100.00
44359;BME280;30077;52.474;13.326;2023-04-08T03:59:15;60132.88;;;-143.30;100.00
44359;BME280;30077;52.474;13.326;2023-04-08T04:04:15;60132.88;;;-143.30;100.00
44359;BME280;30077;52.474;13.326;2023-04-08T04:09:15;60132.88;;;-143.30;100.00
44359;BME280;30077;52.474;13.326;2023-04-08T04:14:16;60132.88;;;-143.30;100.00
44359;BME280;30077;52.474;13.326;2023-04-08T04:19:16;60132.88;;;-143.30;100.00
44359;BME280;30077;52.474;13.326;2023-04-08T04:24:17;60132.88;;;-143.30;100.00
44359;BME280;30077;52.474;13.326;2023-04-08T04:29:17;60132.88;;;-143.30;100.00
44359;BME280;30077;52.474;13.326;2023-04-08T04:34:17;60132.88;;;-143.30;100.00
44359;BME280;30077;52.474;13.326;2023-04-08T04:39:17;60132.88;;;-143.30;100.00
44359;BME280;30077;52.474;13.326;2023-04-08T04:44:17;60132.88;;;-143.30;100.00
44359;BME280;30077;52.474;13.326;2023-04-08T04:49:18;60132.88;;;-143.30;100.00
44359;BME280;30077;52.474;13.326;2023-04-08T04:54:18;60132.88;;;-143.30;100.00
44359;BME280;30077;52.474;13.326;2023-04-08T04:59:18;60132.88;;;-143.30;100.00
44359;BME280;30077;52.474;13.326;2023-04-08T05:04:19;60132.88;;;-143.30;100.00
44359;BME280;30077;52.474;13.326;2023-04-08T05:09:19;60132.88;;;-143.30;100.00
44359;BME280;30077;52.474;13.326;2023-04-08T05:14:19;60132.88;;;-143.30;100.00
44359;BME280;30077;52.474;13.326;2023-04-08T05:19:20;60132.88;;;-143.30;100.00
44359;BME280;30077;52.474;13.326;2023-04-08T05:29:58;60132.88;;;-143.30;100.00
44359;BME280;30077;52.474;13.326;2023-04-08T05:35:00;60132.88;;;-143.30;100.00
44359;BME280;30077;52.474;13.326;2023-04-08T05:40:00;60132.88;;;-143.30;100.00
44359;BME280;30077;52.474;13.326;2023-04-08T05:45:01;60132.88;;;-143.30;100.00
44359;BME280;30077;52.474;13.326;2023-04-08T05:50:01;60132.88;;;-143.30;100.00
44359;BME280;30077;52.474;13.326;2023-04-08T05:55:01;60132.88;;;-143.30;100.00
44359;BME280;30077;52.474;13.326;2023-04-08T06:00:02;60132.88;;;-143.30;100.00
44359;BME280;30077;52.474;13.326;2023-04-08T06:05:02;60132.88;;;-143.30;100.00
44359;BME280;30077;52.474;13.326;2023-04-08T06:10:03;60132.88;;;-143.30;100.00
44359;BME280;30077;52.474;13.326;2023-04-08T06:15:05;60132.88;;;-143.30;100.00
44359;BME280;30077;52.474;13.326;2023-04-08T06:20:06;60132.88;;;-143.30;100.00
44359;BME280;30077;52.474;13.326;2023-04-08T06:25:08;60132.88;;;-143.30;100.00
44359;BME280;30077;52.474;13.326;2023-04-08T06:30:08;60132.88;;;-143.30;100.00
44359;BME280;30077;52.474;13.326;2023-04-08T06:35:08;60132.88;;;-143.30;100.00
44359;BME280;30077;52.474;13.326;2023-04-08T06:40:09;60132.88;;;-143.30;100.00
44359;BME280;30077;52.474;13.326;2023-04-08T06:45:10;60132.88;;;-143.30;100.00
44359;BME280;30077;52.474;13.326;2023-04-08T06:50:10;60132.88;;;-143.30;100.00
44359;BME280;30077;52.474;13.326;2023-04-08T06:55:10;60132.88;;;-143.30;100.00
44359;BME280;30077;52.474;13.326;2023-04-08T07:00:10;60132.88;;;-143.30;100.00
44359;BME280;30077;52.474;13.326;2023-04-08T07:05:10;60132.88;;;-143.30;100.00
44359;BME280;30077;52.474;13.326;2023-04-08T07:10:11;60132.88;;;-143.30;100.00
44359;BME280;30077;52.474;13.326;2023-04-08T07:15:11;60132.88;;;-143.30;100.00
44359;BME280;30077;52.474;13.326;2023-04-08T07:20:12;60132.88;;;-143.30;100.00
44359;BME280;30077;52.474;13.326;2023-04-08T07:25:12;60132.88;;;-143.30;100.00
44359;BME280;30077;52.474;13.326;2023-04-08T07:30:12;60132.88;;;-143.30;100.00
44359;BME280;30077;52.474;13.326;2023-04-08T07:35:13;60132.88;;;-143.30;100.00
44359;BME280;30077;52.474;13.326;2023-04-08T07:40:13;60132.88;;;-143.30;100.00
44359;BME280;30077;52.474;13.326;2023-04-08T07:45:13;60132.88;;;-143.30;100.00
44359;BME280;30077;52.474;13.326;2023-04-08T07:50:13;60132.88;;;-143.30;100.00
44359;BME280;30077;52.474;13.326;2023-04-08T07:55:14;60132.88;;;-143.30;100.00
44359;BME280;30077;52.474;13.326;2023-04-08T08:00:14;60132.88;;;-143.30;100.00
44359;BME280;30077;52.474;13.326;2023-04-08T08:05:21;60132.88;;;-143.30;100.00
44359;BME280;30077;52.474;13.326;2023-04-08T08:10:22;60132.88;;;-143.30;100.00
44359;BME280;30077;52.474;13.326;2023-04-08T08:15:22;60132.88;;;-143.30;100.00
44359;BME280;30077;52.474;13.326;2023-04-08T08:20:22;60132.88;;;-143.30;100.00
44359;BME280;30077;52.474;13.326;2023-04-08T08:25:22;60132.88;;;-143.30;100.00
44359;BME280;30077;52.474;13.326;2023-04-08T08:30:24;60132.88;;;-143.30;100.00
44359;BME280;30077;52.474;13.326;2023-04-08T08:35:25;60132.88;;;-143.30;100.00
44359;BME280;30077;52.474;13.326;2023-04-08T08:40:25;60132.88;;;-143.30;100.00
44359;BME280;30077;52.474;13.326;2023-04-08T08:45:26;60132.88;;;-143.30;100.00
44359;BME280;30077;52.474;13.326;2023-04-08T08:50:26;60132.88;;;-143.30;100.00
44359;BME280;30077;52.474;13.326;2023-04-08T08:55:28;60132.88;;;-143.30;100.00
44359;BME280;30077;52.474;13.326;2023-04-08T09:00:36;60132.88;;;-143.30;100.00
44359;BME280;30077;52.474;13.326;2023-04-08T09:05:45;60132.88;;;-143.30;100.00
44359;BME280;30077;52.474;13.326;2023-04-08T09:10:46;60132.88;;;-143.30;100.00
44359;BME280;30077;52.474;13.326;2023-04-08T09:16:02;60132.88;;;-143.30;100.00
44359;BME280;30077;52.474;13.326;2023-04-08T09:21:03;60132.88;;;-143.30;100.00
44359;BME280;30077;52.474;13.326;2023-04-08T09:26:11;60132.88;;;-143.30;100.00
44359;BME280;30077;52.474;13.326;2023-04-08T09:31:21;60132.88;;;-143.30;100.00
44359;BME280;30077;52.474;13.326;2023-04-08T09:36:22;60132.88;;;-143.30;100.00
44359;BME280;30077;52.474;13.326;2023-04-08T09:41:22;60132.88;;;-143.30;100.00
44359;BME280;30077;52.474;13.326;2023-04-08T09:46:32;60132.88;;;-143.30;100.00
44359;BME280;30077;52.474;13.326;2023-04-08T09:51:52;60132.88;;;-143.30;100.00
44359;BME280;30077;52.474;13.326;2023-04-08T09:57:09;60132.88;;;-143.30;100.00
44359;BME280;30077;52.474;13.326;2023-04-08T10:02:11;60132.88;;;-143.30;100.00
44359;BME280;30077;52.474;13.326;2023-04-08T10:07:15;60132.88;;;-143.30;100.00
44359;BME280;30077;52.474;13.326;2023-04-08T10:12:16;60132.88;;;-143.30;100.00
44359;BME280;30077;52.474;13.326;2023-04-08T10:17:23;60132.88;;;-143.30;100.00
44359;BME280;30077;52.474;13.326;2023-04-08T10:27:39;60132.88;;;-143.30;100.00
44359;BME280;30077;52.474;13.326;2023-04-08T10:32:42;60132.88;;;-143.30;100.00
44359;BME280;30077;52.474;13.326;2023-04-08T10:37:42;60132.88;;;-143.30;100.00
44359;BME280;30077;52.474;13.326;2023-04-08T10:42:45;60132.88;;;-143.30;100.00
44359;BME280;30077;52.474;13.326;2023-04-08T10:47:45;60132.88;;;-143.30;100.00
44359;BME280;30077;52.474;13.326;2023-04-08T10:52:47;60132.88;;;-143.30;100.00
44359;BME280;30077;52.474;13.326;2023-04-08T10:57:48;60132.88;;;-143.30;100.00
44359;BME280;30077;52.474;13.326;2023-04-08T11:02:49;60132.88;;;-143.30;100.00
44359;BME280;30077;52.474;13.326;2023-04-08T11:07:49;60132.88;;;-143.30;100.00
44359;BME280;30077;52.474;13.326;2023-04-08T11:12:50;60132.88;;;-143.30;100.00
44359;BME280;30077;52.474;13.326;2023-04-08T11:17:51;60132.88;;;-143.30;100.00
44359;BME280;30077;52.474;13.326;2023-04-08T11:22:53;60132.88;;;-143.30;100.00
44359;BME280;30077;52.474;13.326;2023-04-08T11:27:53;60132.88;;;-143.30;100.00
44359;BME280;30077;52.474;13.326;2023-04-08T11:32:54;60132.88;;;-143.30;100.00
44359;BME280;30077;52.474;13.326;2023-04-08T11:37:56;60132.88;;;-143.30;100.00
44359;BME280;30077;52.474;13.326;2023-04-08T11:42:56;60132.88;;;-143.30;100.00
44359;BME280;30077;52.474;13.326;2023-04-08T11:47:57;60132.88;;;-143.30;100.00
44359;BME280;30077;52.474;13.326;2023-04-08T11:52:57;60132.88;;;-143.30;100.00
44359;BME280;30077;52.474;13.326;2023-04-08T11:58:02;60132.88;;;-143.30;100.00
44359;BME280;30077;52.474;13.326;2023-04-08T12:03:03;60132.88;;;-143.30;100.00
44359;BME280;30077;52.474;13.326;2023-04-08T12:08:03;60132.88;;;-143.30;100.00
44359;BME280;30077;52.474;13.326;2023-04-08T12:13:03;60132.88;;;-143.30;100.00
44359;BME280;30077;52.474;13.326;2023-04-08T12:18:03;60132.88;;;-143.30;100.00
44359;BME280;30077;52.474;13.326;2023-04-08T12:23:05;60132.88;;;-143.30;100.00
44359;BME280;30077;52.474;13.326;2023-04-08T12:28:07;60132.88;;;-143.30;100.00
44359;BME280;30077;52.474;13.326;2023-04-08T12:33:08;60132.88;;;-143.30;100.00
44359;BME280;30077;52.474;13.326;2023-04-08T12:38:08;60132.88;;;-143.30;100.00
44359;BME280;30077;52.474;13.326;2023-04-08T12:43:09;60132.88;;;-143.30;100.00
44359;BME280;30077;52.474;13.326;2023-04-08T12:48:09;60132.88;;;-143.30;100.00
44359;BME280;30077;52.474;13.326;2023-04-08T12:53:09;60132.88;;;-143.30;100.00
44359;BME280;30077;52.474;13.326;2023-04-08T12:58:10;60132.88;;;-143.30;100.00
44359;BME280;30077;52.474;13.326;2023-04-08T13:03:11;60132.88;;;-143.30;100.00
44359;BME280;30077;52.474;13.326;2023-04-08T13:08:11;60132.88;;;-143.30;100.00
44359;BME280;30077;52.474;13.326;2023-04-08T13:13:11;60132.88;;;-143.30;100.00
44359;BME280;30077;52.474;13.326;2023-04-08T13:18:13;60132.88;;;-143.30;100.00
44359;BME280;30077;52.474;13.326;2023-04-08T13:23:13;60132.88;;;-143.30;100.00
44359;BME280;30077;52.474;13.326;2023-04-08T13:28:17;60132.88;;;-143.30;100.00
44359;BME280;30077;52.474;13.326;2023-04-08T13:33:17;60132.88;;;-143.30;100.00
44359;BME280;30077;52.474;13.326;2023-04-08T13:38:17;60132.88;;;-143.30;100.00
44359;BME280;30077;52.474;13.326;2023-04-08T13:43:18;60132.88;;;-143.30;100.00
44359;BME280;30077;52.474;13.326;2023-04-08T13:48:18;60132.88;;;-143.30;100.00
44359;BME280;30077;52.474;13.326;2023-04-08T13:53:18;60132.88;;;-143.30;100.00
44359;BME280;30077;52.474;13.326;2023-04-08T13:58:18;60132.88;;;-143.30;100.00
44359;BME280;30077;52.474;13.326;2023-04-08T14:03:20;60132.88;;;-143.30;100.00
44359;BME280;30077;52.474;13.326;2023-04-08T14:08:21;60132.88;;;-143.30;100.00
44359;BME280;30077;52.474;13.326;2023-04-08T14:13:24;60132.88;;;-143.30;100.00
44359;BME280;30077;52.474;13.326;2023-04-08T14:18:24;60132.88;;;-143.30;100.00
44359;BME280;30077;52.474;13.326;2023-04-08T14:23:25;60132.88;;;-143.30;100.00
44359;BME280;30077;52.474;13.326;2023-04-08T14:28:25;60132.88;;;-143.30;100.00
44359;BME280;30077;52.474;13.326;2023-04-08T14:33:25;60132.88;;;-143.30;100.00
44359;BME280;30077;52.474;13.326;2023-04-08T14:38:26;60132.88;;;-143.30;100.00
44359;BME280;30077;52.474;13.326;2023-04-08T14:43:27;60132.88;;;-143.30;100.00
44359;BME280;30077;52.474;13.326;2023-04-08T14:48:28;60132.88;;;-143.30;100.00
44359;BME280;30077;52.474;13.326;2023-04-08T14:53:29;60132.88;;;-143.30;100.00
44359;BME280;30077;52.474;13.326;2023-04-08T14:58:29;60132.88;;;-143.30;100.00
44359;BME280;30077;52.474;13.326;2023-04-08T15:03:30;60132.88;;;-143.30;100.00
44359;BME280;30077;52.474;13.326;2023-04-08T15:08:30;60132.88;;;-143.30;100.00
44359;BME280;30077;52.474;13.326;2023-04-08T15:13:31;60132.88;;;-143.30;100.00
44359;BME280;30077;52.474;13.326;2023-04-08T15:18:31;60132.88;;;-143.30;100.00
44359;BME280;30077;52.474;13.326;2023-04-08T15:23:31;60132.88;;;-143.30;100.00
44359;BME280;30077;52.474;13.326;2023-04-08T15:28:32;60132.88;;;-143.30;100.00
44359;BME280;30077;52.474;13.326;2023-04-08T15:33:33;60132.88;;;-143.30;100.00
44359;BME280;30077;52.474;13.326;2023-04-08T15:38:34;60132.88;;;-143.30;100.00
44359;BME280;30077;52.474;13.326;2023-04-08T15:43:34;60132.88;;;-143.30;100.00
44359;BME280;30077;52.474;13.326;2023-04-08T15:48:35;60132.88;;;-143.30;100.00
44359;BME280;30077;52.474;13.326;2023-04-08T15:53:36;60132.88;;;-143.30;100.00
44359;BME280;30077;52.474;13.326;2023-04-08T15:58:36;60132.88;;;-143.30;100.00
44359;BME280;30077;52.474;13.326;2023-04-08T16:03:36;60132.88;;;-143.30;100.00
44359;BME280;30077;52.474;13.326;2023-04-08T16:08:37;60132.88;;;-143.30;100.00
44359;BME280;30077;52.474;13.326;2023-04-08T16:13:38;60132.88;;;-143.30;100.00
44359;BME280;30077;52.474;13.326;2023-04-08T16:18:41;60132.88;;;-143.30;100.00
44359;BME280;30077;52.474;13.326;2023-04-08T16:23:42;60132.88;;;-143.30;100.00
44359;BME280;30077;52.474;13.326;2023-04-08T16:28:43;60132.88;;;-143.30;100.00
44359;BME280;30077;52.474;13.326;2023-04-08T16:33:43;60132.88;;;-143.30;100.00
44359;BME280;30077;52.474;13.326;2023-04-08T16:38:43;60132.88;;;-143.30;100.00
44359;BME280;30077;52.474;13.326;2023-04-08T16:43:43;60132.88;;;-143.30;100.00
44359;BME280;30077;52.474;13.326;2023-04-08T16:48:44;60132.88;;;-143.30;100.00
44359;BME280;30077;52.474;13.326;2023-04-08T16:53:44;60132.88;;;-143.30;100.00
44359;BME280;30077;52.474;13.326;2023-04-08T16:58:44;60132.88;;;-143.30;100.00
44359;BME280;30077;52.474;13.326;2023-04-08T17:03:44;60132.88;;;-143.30;100.00
44359;BME280;30077;52.474;13.326;2023-04-08T17:08:46;60132.88;;;-143.30;100.00
44359;BME280;30077;52.474;13.326;2023-04-08T17:13:46;60132.88;;;-143.30;100.00
44359;BME280;30077;52.474;13.326;2023-04-08T17:18:46;60132.88;;;-143.30;100.00
44359;BME280;30077;52.474;13.326;2023-04-08T17:23:47;60132.88;;;-143.30;100.00
44359;BME280;30077;52.474;13.326;2023-04-08T17:28:47;60132.88;;;-143.30;100.00
44359;BME280;30077;52.474;13.326;2023-04-08T17:33:47;60132.88;;;-143.30;100.00
44359;BME280;30077;52.474;13.326;2023-04-08T17:38:47;60132.88;;;-143.30;100.00
44359;BME280;30077;52.474;13.326;2023-04-08T17:43:48;60132.88;;;-143.30;100.00
44359;BME280;30077;52.474;13.326;2023-04-08T17:48:48;60132.88;;;-143.30;100.00
44359;BME280;30077;52.474;13.326;2023-04-08T17:53:48;60132.88;;;-143.30;100.00
44359;BME280;30077;52.474;13.326;2023-04-08T17:58:50;60132.88;;;-143.30;100.00
44359;BME280;30077;52.474;13.326;2023-04-08T18:03:50;60132.88;;;-143.30;100.00
44359;BME280;30077;52.474;13.326;2023-04-08T18:08:50;60132.88;;;-143.30;100.00
44359;BME280;30077;52.474;13.326;2023-04-08T18:13:50;60132.88;;;-143.30;100.00
44359;BME280;30077;52.474;13.326;2023-04-08T18:18:51;60132.88;;;-143.30;100.00
44359;BME280;30077;52.474;13.326;2023-04-08T18:23:51;60132.88;;;-143.30;100.00
44359;BME280;30077;52.474;13.326;2023-04-08T18:28:51;60132.88;;;-143.30;100.00
44359;BME280;30077;52.474;13.326;2023-04-08T18:33:51;60132.88;;;-143.30;100.00
44359;BME280;30077;52.474;13.326;2023-04-08T18:38:51;60132.88;;;-143.30;100.00
44359;BME280;30077;52.474;13.326;2023-04-08T18:43:52;60132.88;;;-143.30;100.00
44359;BME280;30077;52.474;13.326;2023-04-08T18:48:52;60132.88;;;-143.30;100.00
44359;BME280;30077;52.474;13.326;2023-04-08T18:53:52;60132.88;;;-143.30;100.00
44359;BME280;30077;52.474;13.326;2023-04-08T18:58:52;60132.88;;;-143.30;100.00
44359;BME280;30077;52.474;13.326;2023-04-08T19:03:53;60132.88;;;-143.30;100.00
44359;BME280;30077;52.474;13.326;2023-04-08T19:08:53;60132.88;;;-143.30;100.00
44359;BME280;30077;52.474;13.326;2023-04-08T19:13:57;60132.88;;;-143.30;100.00
44359;BME280;30077;52.474;13.326;2023-04-08T19:18:57;60132.88;;;-143.30;100.00
44359;BME280;30077;52.474;13.326;2023-04-08T19:23:57;60132.88;;;-143.30;100.00
44359;BME280;30077;52.474;13.326;2023-04-08T19:28:57;60132.88;;;-143.30;100.00
44359;BME280;30077;52.474;13.326;2023-04-08T19:33:57;60132.88;;;-143.30;100.00
44359;BME280;30077;52.474;13.326;2023-04-08T19:38:58;60132.88;;;-143.30;100.00
44359;BME280;30077;52.474;13.326;2023-04-08T19:43:59;60132.88;;;-143.30;100.00
44359;BME280;30077;52.474;13.326;2023-04-08T19:48:59;60132.88;;;-143.30;100.00
44359;BME280;30077;52.474;13.326;2023-04-08T19:53:59;60132.88;;;-143.30;100.00
44359;BME280;30077;52.474;13.326;2023-04-08T19:59:00;60132.88;;;-143.30;100.00
44359;BME280;30077;52.474;13.326;2023-04-08T20:04:01;60132.88;;;-143.30;100.00
44359;BME280;30077;52.474;13.326;2023-04-08T20:09:01;60132.88;;;-143.30;100.00
44359;BME280;30077;52.474;13.326;2023-04-08T20:14:04;60132.88;;;-143.30;100.00
44359;BME280;30077;52.474;13.326;2023-04-08T20:19:04;60132.88;;;-143.30;100.00
44359;BME280;30077;52.474;13.326;2023-04-08T20:24:04;60132.88;;;-143.30;100.00
44359;BME280;30077;52.474;13.326;2023-04-08T20:29:06;60132.88;;;-143.30;100.00
44359;BME280;30077;52.474;13.326;2023-04-08T20:34:06;60132.88;;;-143.30;100.00
44359;BME280;30077;52.474;13.326;2023-04-08T20:39:09;60132.88;;;-143.30;100.00
44359;BME280;30077;52.474;13.326;2023-04-08T20:44:09;60132.88;;;-143.30;100.00
44359;BME280;30077;52.474;13.326;2023-04-08T20:49:09;60132.88;;;-143.30;100.00
44359;BME280;30077;52.474;13.326;2023-04-08T20:54:11;60132.88;;;-143.30;100.00
44359;BME280;30077;52.474;13.326;2023-04-08T20:59:11;60132.88;;;-143.30;100.00
44359;BME280;30077;52.474;13.326;2023-04-08T21:04:11;60132.88;;;-143.30;100.00
44359;BME280;30077;52.474;13.326;2023-04-08T21:09:12;60132.88;;;-143.30;100.00
44359;BME280;30077;52.474;13.326;2023-04-08T21:14:13;60132.88;;;-143.30;100.00
44359;BME280;30077;52.474;13.326;2023-04-08T21:19:13;60132.88;;;-143.30;100.00
44359;BME280;30077;52.474;13.326;2023-04-08T21:24:14;60132.88;;;-143.30;100.00
44359;BME280;30077;52.474;13.326;2023-04-08T21:29:14;60132.88;;;-143.30;100.00
44359;BME280;30077;52.474;13.326;2023-04-08T21:34:15;60132.88;;;-143.30;100.00
44359;BME280;30077;52.474;13.326;2023-04-08T21:39:15;60132.88;;;-143.30;100.00
44359;BME280;30077;52.474;13.326;2023-04-08T21:44:15;60132.88;;;-143.30;100.00
44359;BME280;30077;52.474;13.326;2023-04-08T21:49:15;60132.88;;;-143.30;100.00
44359;BME280;30077;52.474;13.326;2023-04-08T21:54:17;60132.88;;;-143.30;100.00
44359;BME280;30077;52.474;13.326;2023-04-08T21:59:17;60132.88;;;-143.30;100.00
44359;BME280;30077;52.474;13.326;2023-04-08T22:04:18;60132.88;;;-143.30;100.00
44359;BME280;30077;52.474;13.326;2023-04-08T22:09:20;60132.88;;;-143.30;100.00
44359;BME280;30077;52.474;13.326;2023-04-08T22:14:20;60132.88;;;-143.30;100.00
44359;BME280;30077;52.474;13.326;2023-04-08T22:19:20;60132.88;;;-143.30;100.00
44359;BME280;30077;52.474;13.326;2023-04-08T22:24:22;60132.88;;;-143.30;100.00
44359;BME280;30077;52.474;13.326;2023-04-08T22:29:22;60132.88;;;-143.30;100.00
44359;BME280;30077;52.474;13.326;2023-04-08T22:34:22;60132.88;;;-143.30;100.00
44359;BME280;30077;52.474;13.326;2023-04-08T22:39:22;60132.88;;;-143.30;100.00
44359;BME280;30077;52.474;13.326;2023-04-08T22:44:26;60132.88;;;-143.30;100.00
44359;BME280;30077;52.474;13.326;2023-04-08T22:49:26;60132.88;;;-143.30;100.00
44359;BME280;30077;52.474;13.326;2023-04-08T22:54:26;60132.88;;;-143.30;100.00
44359;BME280;30077;52.474;13.326;2023-04-08T22:59:26;60132.88;;;-143.30;100.00
44359;BME280;30077;52.474;13.326;2023-04-08T23:04:26;60132.88;;;-143.30;100.00
44359;BME280;30077;52.474;13.326;2023-04-08T23:09:27;60132.88;;;-143.30;100.00
44359;BME280;30077;52.474;13.326;2023-04-08T23:14:27;60132.88;;;-143.30;100.00
44359;BME280;30077;52.474;13.326;2023-04-08T23:19:27;60132.88;;;-143.30;100.00
44359;BME280;30077;52.474;13.326;2023-04-08T23:24:27;60132.88;;;-143.30;100.00
44359;BME280;30077;52.474;13.326;2023-04-08T23:29:27;60132.88;;;-143.30;100.00
44359;BME280;30077;52.474;13.326;2023-04-08T23:34:28;60132.88;;;-143.30;100.00
44359;BME280;30077;52.474;13.326;2023-04-08T23:39:29;60132.88;;;-143.30;100.00
44359;BME280;30077;52.474;13.326;2023-04-08T23:44:29;60132.88;;;-143.30;100.00
44359;BME280;30077;52.474;13.326;2023-04-08T23:49:29;60132.88;;;-143.30;100.00
44359;BME280;30077;52.474;13.326;2023-04-08T23:54:29;60132.88;;;-143.30;100.00
44359;BME280;30077;52.474;13.326;2023-04-08T23:59:32;60132.88;;;-143.30;100.00
